LAE2502 SEQM-MPTO
Flight info
| Callsign | LAE2502 |
|---|---|
| Flight time | 1h 20m |
| Altitude | 34000 |
| Route | NEGAL3A NEGAL DCT ENSOL UM674 TOKUT DCT MILAT DCT SIRIL SIRIL3 |
| Aircraft | B763/H-SDE3FGHIM3RWXY/LB1 |
Departure
| Time | 2026-04-30 02:26 |
|---|---|
| Airport | Mariscal Sucre International Airport (SEQM) |
Arrival
| Time | 2026-04-30 03:46 |
|---|---|
| Airport | Tocumen International Airport (MPTO) |
| Time | Latitude | Longitude | Altitude | Speed | Heading |
|---|---|---|---|---|---|
| 2026-04-30 02:08 | -0.13186 | -78.35742 | 7852 ft | 0 kts | 268° |
| 2026-04-30 02:15 | -0.13186 | -78.35738 | 7853 ft | 2 kts | 268° |
| 2026-04-30 02:15 | -0.13186 | -78.35723 | 7854 ft | 2 kts | 267° |
| 2026-04-30 02:16 | -0.13185 | -78.35712 | 7855 ft | 0 kts | 268° |
| 2026-04-30 02:16 | -0.13184 | -78.35699 | 7857 ft | 2 kts | 253° |
| 2026-04-30 02:16 | -0.13178 | -78.35685 | 7858 ft | 2 kts | 233° |
| 2026-04-30 02:16 | -0.13167 | -78.35674 | 7858 ft | 2 kts | 215° |
| 2026-04-30 02:17 | -0.13154 | -78.35667 | 7858 ft | 2 kts | 197° |
| 2026-04-30 02:17 | -0.13140 | -78.35664 | 7858 ft | 0 kts | 180° |
| 2026-04-30 02:17 | -0.13134 | -78.35664 | 7858 ft | 1 kts | 176° |
| 2026-04-30 02:17 | -0.13133 | -78.35664 | 7858 ft | 0 kts | 177° |
| 2026-04-30 02:19 | -0.13139 | -78.35664 | 7858 ft | 1 kts | 177° |
| 2026-04-30 02:19 | -0.13157 | -78.35664 | 7859 ft | 3 kts | 177° |
| 2026-04-30 02:19 | -0.13187 | -78.35662 | 7860 ft | 5 kts | 177° |
| 2026-04-30 02:19 | -0.13251 | -78.35660 | 7863 ft | 13 kts | 178° |
| 2026-04-30 02:20 | -0.13378 | -78.35657 | 7868 ft | 22 kts | 178° |
| 2026-04-30 02:20 | -0.13545 | -78.35635 | 7877 ft | 19 kts | 147° |
| 2026-04-30 02:20 | -0.13611 | -78.35571 | 7887 ft | 9 kts | 159° |
| 2026-04-30 02:20 | -0.13667 | -78.35564 | 7890 ft | 7 kts | 176° |
| 2026-04-30 02:21 | -0.13715 | -78.35562 | 7892 ft | 6 kts | 178° |
| 2026-04-30 02:21 | -0.13758 | -78.35560 | 7894 ft | 6 kts | 176° |
| 2026-04-30 02:21 | -0.13809 | -78.35558 | 7896 ft | 8 kts | 178° |
| 2026-04-30 02:21 | -0.13870 | -78.35555 | 7899 ft | 9 kts | 177° |
| 2026-04-30 02:22 | -0.13937 | -78.35554 | 7902 ft | 10 kts | 179° |
| 2026-04-30 02:22 | -0.14005 | -78.35550 | 7906 ft | 9 kts | 175° |
| 2026-04-30 02:22 | -0.14070 | -78.35545 | 7909 ft | 8 kts | 176° |
| 2026-04-30 02:22 | -0.14105 | -78.35544 | 7910 ft | 2 kts | 178° |
| 2026-04-30 02:23 | -0.14125 | -78.35543 | 7911 ft | 6 kts | 178° |
| 2026-04-30 02:23 | -0.14208 | -78.35535 | 7914 ft | 16 kts | 162° |
| 2026-04-30 02:23 | -0.14256 | -78.35466 | 7925 ft | 8 kts | 91° |
| 2026-04-30 02:23 | -0.14256 | -78.35429 | 7930 ft | 4 kts | 88° |
| 2026-04-30 02:24 | -0.14253 | -78.35401 | 7933 ft | 4 kts | 78° |
| 2026-04-30 02:24 | -0.14222 | -78.35367 | 7934 ft | 10 kts | 13° |
| 2026-04-30 02:24 | -0.14205 | -78.35366 | 7933 ft | 0 kts | 358° |
| 2026-04-30 02:24 | -0.14050 | -78.35372 | 7928 ft | 47 kts | 359° |
| 2026-04-30 02:25 | -0.13546 | -78.35394 | 7901 ft | 96 kts | 357° |
| 2026-04-30 02:25 | -0.12721 | -78.35427 | 7855 ft | 140 kts | 357° |
| 2026-04-30 02:25 | -0.11610 | -78.35474 | 7786 ft | 180 kts | 358° |
| 2026-04-30 02:25 | -0.10276 | -78.35530 | 7996 ft | 192 kts | 359° |
| 2026-04-30 02:26 | -0.08925 | -78.35561 | 8347 ft | 197 kts | 359° |
| 2026-04-30 02:26 | -0.07532 | -78.35607 | 8538 ft | 205 kts | 359° |
| 2026-04-30 02:26 | -0.06149 | -78.35680 | 9047 ft | 195 kts | 351° |
| 2026-04-30 02:26 | -0.04833 | -78.36082 | 9293 ft | 200 kts | 340° |
| 2026-04-30 02:27 | -0.03551 | -78.36571 | 9615 ft | 200 kts | 340° |
| 2026-04-30 02:27 | -0.02248 | -78.37060 | 9910 ft | 203 kts | 340° |
| 2026-04-30 02:27 | -0.00927 | -78.37562 | 10331 ft | 201 kts | 340° |
| 2026-04-30 02:27 | 0.00388 | -78.38061 | 10651 ft | 204 kts | 340° |
| 2026-04-30 02:28 | 0.01719 | -78.38568 | 11039 ft | 204 kts | 340° |
| 2026-04-30 02:28 | 0.03056 | -78.39078 | 11364 ft | 206 kts | 340° |
| 2026-04-30 02:28 | 0.04388 | -78.39587 | 11684 ft | 208 kts | 340° |
| 2026-04-30 02:28 | 0.05750 | -78.40106 | 11797 ft | 222 kts | 340° |
| 2026-04-30 02:29 | 0.07169 | -78.40648 | 11908 ft | 236 kts | 340° |
| 2026-04-30 02:29 | 0.08755 | -78.41254 | 12073 ft | 249 kts | 340° |
| 2026-04-30 02:29 | 0.10364 | -78.41868 | 12295 ft | 263 kts | 340° |
| 2026-04-30 02:29 | 0.12068 | -78.42519 | 12530 ft | 278 kts | 340° |
| 2026-04-30 02:30 | 0.13898 | -78.43218 | 12774 ft | 295 kts | 340° |
| 2026-04-30 02:30 | 0.15835 | -78.43982 | 13277 ft | 303 kts | 339° |
| 2026-04-30 02:30 | 0.17820 | -78.44803 | 13583 ft | 316 kts | 339° |
| 2026-04-30 02:30 | 0.19930 | -78.45673 | 13730 ft | 334 kts | 339° |
| 2026-04-30 02:31 | 0.22109 | -78.46571 | 13872 ft | 351 kts | 339° |
| 2026-04-30 02:31 | 0.24437 | -78.47530 | 14024 ft | 369 kts | 339° |
| 2026-04-30 02:31 | 0.26825 | -78.48515 | 14189 ft | 385 kts | 339° |
| 2026-04-30 02:31 | 0.29280 | -78.49528 | 14693 ft | 391 kts | 339° |
| 2026-04-30 02:32 | 0.31781 | -78.50561 | 15306 ft | 395 kts | 339° |
| 2026-04-30 02:32 | 0.34320 | -78.51608 | 15903 ft | 398 kts | 339° |
| 2026-04-30 02:32 | 0.36880 | -78.52663 | 16492 ft | 402 kts | 339° |
| 2026-04-30 02:32 | 0.39528 | -78.53547 | 17041 ft | 403 kts | 350° |
| 2026-04-30 02:33 | 0.42315 | -78.53813 | 17617 ft | 403 kts | 0° |
| 2026-04-30 02:33 | 0.45114 | -78.53913 | 18184 ft | 407 kts | 358° |
| 2026-04-30 02:33 | 0.47975 | -78.54143 | 18756 ft | 411 kts | 356° |
| 2026-04-30 02:33 | 0.50809 | -78.54427 | 19292 ft | 415 kts | 355° |
| 2026-04-30 02:34 | 0.53675 | -78.54748 | 19841 ft | 418 kts | 355° |
| 2026-04-30 02:34 | 0.56583 | -78.55091 | 20377 ft | 421 kts | 354° |
| 2026-04-30 02:34 | 0.59480 | -78.55442 | 20902 ft | 424 kts | 354° |
| 2026-04-30 02:34 | 0.62421 | -78.55804 | 21414 ft | 427 kts | 354° |
| 2026-04-30 02:35 | 0.65395 | -78.56172 | 21927 ft | 430 kts | 354° |
| 2026-04-30 02:35 | 0.68346 | -78.56540 | 22423 ft | 433 kts | 354° |
| 2026-04-30 02:35 | 0.71338 | -78.56913 | 22914 ft | 436 kts | 354° |
| 2026-04-30 02:35 | 0.74335 | -78.57287 | 23409 ft | 439 kts | 354° |
| 2026-04-30 02:36 | 0.77373 | -78.57666 | 23892 ft | 442 kts | 353° |
| 2026-04-30 02:36 | 0.80434 | -78.58048 | 24373 ft | 445 kts | 353° |
| 2026-04-30 02:36 | 0.83501 | -78.58432 | 24840 ft | 447 kts | 353° |
| 2026-04-30 02:36 | 0.86620 | -78.58822 | 25290 ft | 451 kts | 353° |
| 2026-04-30 02:37 | 0.89726 | -78.59209 | 25719 ft | 454 kts | 353° |
| 2026-04-30 02:37 | 0.92868 | -78.59602 | 26174 ft | 457 kts | 353° |
| 2026-04-30 02:37 | 0.96038 | -78.59998 | 26598 ft | 460 kts | 353° |
| 2026-04-30 02:37 | 0.99128 | -78.60385 | 26994 ft | 463 kts | 353° |
| 2026-04-30 02:38 | 1.02228 | -78.60772 | 27384 ft | 466 kts | 353° |
| 2026-04-30 02:38 | 1.05433 | -78.61173 | 27780 ft | 469 kts | 353° |
| 2026-04-30 02:38 | 1.08707 | -78.61582 | 28174 ft | 473 kts | 353° |
| 2026-04-30 02:38 | 1.11960 | -78.61989 | 28562 ft | 475 kts | 353° |
| 2026-04-30 02:39 | 1.15281 | -78.62403 | 28956 ft | 478 kts | 353° |
| 2026-04-30 02:39 | 1.18571 | -78.62814 | 29345 ft | 481 kts | 353° |
| 2026-04-30 02:39 | 1.21887 | -78.63229 | 29728 ft | 484 kts | 353° |
| 2026-04-30 02:39 | 1.25252 | -78.63649 | 30108 ft | 486 kts | 353° |
| 2026-04-30 02:40 | 1.28639 | -78.64072 | 30475 ft | 489 kts | 353° |
| 2026-04-30 02:40 | 1.31992 | -78.64491 | 30866 ft | 490 kts | 353° |
| 2026-04-30 02:40 | 1.35382 | -78.64915 | 31347 ft | 490 kts | 353° |
| 2026-04-30 02:40 | 1.38776 | -78.65340 | 31826 ft | 489 kts | 353° |
| 2026-04-30 02:41 | 1.42109 | -78.65756 | 32252 ft | 489 kts | 353° |
| 2026-04-30 02:41 | 1.45483 | -78.66178 | 32688 ft | 488 kts | 353° |
| 2026-04-30 02:41 | 1.48854 | -78.66599 | 33121 ft | 487 kts | 353° |
| 2026-04-30 02:41 | 1.52240 | -78.67023 | 33516 ft | 487 kts | 353° |
| 2026-04-30 02:42 | 1.55554 | -78.67437 | 33865 ft | 486 kts | 353° |
| 2026-04-30 02:42 | 1.62289 | -78.68279 | 33857 ft | 485 kts | 353° |
| 2026-04-30 02:43 | 1.68948 | -78.69112 | 33858 ft | 483 kts | 353° |
| 2026-04-30 02:43 | 1.75591 | -78.69943 | 33859 ft | 484 kts | 353° |
| 2026-04-30 02:44 | 1.82293 | -78.70781 | 33858 ft | 484 kts | 353° |
| 2026-04-30 02:44 | 1.89013 | -78.71621 | 33859 ft | 484 kts | 353° |
| 2026-04-30 02:45 | 1.95688 | -78.72456 | 33859 ft | 484 kts | 353° |
| 2026-04-30 02:45 | 2.02354 | -78.73289 | 33858 ft | 485 kts | 353° |
| 2026-04-30 02:46 | 2.09047 | -78.74126 | 33859 ft | 485 kts | 353° |
| 2026-04-30 02:46 | 2.15785 | -78.74970 | 33858 ft | 486 kts | 352° |
| 2026-04-30 02:47 | 2.22489 | -78.75808 | 33857 ft | 486 kts | 352° |
| 2026-04-30 02:47 | 2.29214 | -78.76650 | 33858 ft | 487 kts | 352° |
| 2026-04-30 02:48 | 2.35917 | -78.77488 | 33856 ft | 487 kts | 352° |
| 2026-04-30 02:48 | 2.42681 | -78.78335 | 33858 ft | 488 kts | 352° |
| 2026-04-30 02:49 | 2.49406 | -78.79176 | 33859 ft | 489 kts | 352° |
| 2026-04-30 02:49 | 2.56128 | -78.80018 | 33857 ft | 489 kts | 352° |
| 2026-04-30 02:50 | 2.62862 | -78.80861 | 33859 ft | 490 kts | 352° |
| 2026-04-30 02:50 | 2.69608 | -78.81705 | 33859 ft | 491 kts | 352° |
| 2026-04-30 02:51 | 2.76429 | -78.82559 | 33859 ft | 491 kts | 352° |
| 2026-04-30 02:51 | 2.83206 | -78.83408 | 33861 ft | 492 kts | 352° |
| 2026-04-30 02:52 | 2.89975 | -78.84256 | 33859 ft | 492 kts | 352° |
| 2026-04-30 02:52 | 2.96774 | -78.85107 | 33860 ft | 492 kts | 352° |
| 2026-04-30 02:53 | 3.03577 | -78.85960 | 33886 ft | 492 kts | 352° |
| 2026-04-30 02:53 | 3.10344 | -78.86807 | 33914 ft | 493 kts | 352° |
| 2026-04-30 02:54 | 3.17170 | -78.87663 | 33911 ft | 493 kts | 352° |
| 2026-04-30 02:54 | 3.23958 | -78.88513 | 33910 ft | 493 kts | 352° |
| 2026-04-30 02:55 | 3.30772 | -78.89368 | 33911 ft | 493 kts | 352° |
| 2026-04-30 02:55 | 3.37537 | -78.90215 | 33911 ft | 493 kts | 352° |
| 2026-04-30 02:56 | 3.44362 | -78.91071 | 33912 ft | 494 kts | 352° |
| 2026-04-30 02:56 | 3.51152 | -78.91923 | 33860 ft | 495 kts | 352° |
| 2026-04-30 02:57 | 3.57913 | -78.92770 | 33856 ft | 492 kts | 352° |
| 2026-04-30 02:57 | 3.64714 | -78.93623 | 33859 ft | 493 kts | 352° |
| 2026-04-30 02:58 | 3.71536 | -78.94479 | 33858 ft | 493 kts | 352° |
| 2026-04-30 02:58 | 3.78300 | -78.95328 | 33859 ft | 493 kts | 352° |
| 2026-04-30 02:59 | 3.85122 | -78.96184 | 33861 ft | 494 kts | 352° |
| 2026-04-30 02:59 | 3.91922 | -78.97038 | 33859 ft | 494 kts | 352° |
| 2026-04-30 03:00 | 3.98758 | -78.97896 | 33858 ft | 494 kts | 352° |
| 2026-04-30 03:00 | 4.05564 | -78.98750 | 33858 ft | 495 kts | 352° |
| 2026-04-30 03:01 | 4.12385 | -78.99606 | 33852 ft | 494 kts | 352° |
| 2026-04-30 03:01 | 4.19228 | -79.00466 | 33851 ft | 494 kts | 352° |
| 2026-04-30 03:02 | 4.26052 | -79.01323 | 33850 ft | 495 kts | 352° |
| 2026-04-30 03:02 | 4.32879 | -79.02181 | 33850 ft | 496 kts | 352° |
| 2026-04-30 03:03 | 4.39682 | -79.03036 | 33849 ft | 496 kts | 352° |
| 2026-04-30 03:03 | 4.49975 | -79.04329 | 33849 ft | 496 kts | 352° |
| 2026-04-30 03:04 | 4.56816 | -79.05190 | 33848 ft | 496 kts | 352° |
| 2026-04-30 03:04 | 4.63624 | -79.06046 | 33847 ft | 496 kts | 352° |
| 2026-04-30 03:05 | 4.70457 | -79.06905 | 33842 ft | 496 kts | 352° |
| 2026-04-30 03:05 | 4.77281 | -79.07763 | 33836 ft | 496 kts | 352° |
| 2026-04-30 03:06 | 4.84151 | -79.08627 | 33832 ft | 496 kts | 352° |
| 2026-04-30 03:06 | 4.90999 | -79.09489 | 33833 ft | 496 kts | 352° |
| 2026-04-30 03:07 | 4.97853 | -79.10352 | 33833 ft | 496 kts | 352° |
| 2026-04-30 03:07 | 5.04718 | -79.11216 | 33834 ft | 496 kts | 352° |
| 2026-04-30 03:08 | 5.11556 | -79.12077 | 33830 ft | 496 kts | 352° |
| 2026-04-30 03:08 | 5.18440 | -79.12942 | 33851 ft | 499 kts | 352° |
| 2026-04-30 03:09 | 5.25358 | -79.13815 | 33856 ft | 504 kts | 352° |
| 2026-04-30 03:09 | 5.32317 | -79.14692 | 33854 ft | 502 kts | 352° |
| 2026-04-30 03:10 | 5.39231 | -79.15564 | 33854 ft | 502 kts | 352° |
| 2026-04-30 03:10 | 5.46163 | -79.16438 | 33853 ft | 502 kts | 352° |
| 2026-04-30 03:11 | 5.53107 | -79.17313 | 33854 ft | 502 kts | 352° |
| 2026-04-30 03:11 | 5.60036 | -79.18187 | 33828 ft | 502 kts | 352° |
| 2026-04-30 03:12 | 5.66984 | -79.19064 | 33832 ft | 503 kts | 352° |
| 2026-04-30 03:12 | 5.73939 | -79.19942 | 33832 ft | 503 kts | 352° |
| 2026-04-30 03:13 | 5.80852 | -79.20814 | 33833 ft | 503 kts | 352° |
| 2026-04-30 03:13 | 5.87833 | -79.21695 | 33833 ft | 504 kts | 352° |
| 2026-04-30 03:14 | 5.94739 | -79.22563 | 33833 ft | 504 kts | 352° |
| 2026-04-30 03:14 | 6.01724 | -79.23390 | 33835 ft | 504 kts | 352° |
| 2026-04-30 03:15 | 6.08674 | -79.24215 | 33835 ft | 503 kts | 352° |
| 2026-04-30 03:15 | 6.15627 | -79.25040 | 33827 ft | 503 kts | 352° |
| 2026-04-30 03:16 | 6.22600 | -79.25867 | 33830 ft | 505 kts | 352° |
| 2026-04-30 03:16 | 6.29583 | -79.26697 | 33828 ft | 505 kts | 352° |
| 2026-04-30 03:17 | 6.36524 | -79.27522 | 33829 ft | 504 kts | 352° |
| 2026-04-30 03:17 | 6.43477 | -79.28348 | 33830 ft | 505 kts | 352° |
| 2026-04-30 03:18 | 6.50434 | -79.29174 | 33829 ft | 503 kts | 352° |
| 2026-04-30 03:18 | 6.57393 | -79.30002 | 33848 ft | 503 kts | 352° |
| 2026-04-30 03:19 | 6.64337 | -79.30828 | 33858 ft | 504 kts | 352° |
| 2026-04-30 03:19 | 6.71287 | -79.31654 | 33858 ft | 503 kts | 352° |
| 2026-04-30 03:20 | 6.78218 | -79.32479 | 33859 ft | 503 kts | 352° |
| 2026-04-30 03:20 | 6.85215 | -79.33312 | 33861 ft | 503 kts | 352° |
| 2026-04-30 03:21 | 6.88650 | -79.33720 | 33844 ft | 489 kts | 352° |
| 2026-04-30 03:21 | 6.91971 | -79.34115 | 33728 ft | 476 kts | 352° |
| 2026-04-30 03:21 | 6.95218 | -79.34502 | 33151 ft | 474 kts | 352° |
| 2026-04-30 03:21 | 6.98516 | -79.34897 | 32497 ft | 474 kts | 352° |
| 2026-04-30 03:22 | 7.01780 | -79.35286 | 31838 ft | 473 kts | 353° |
| 2026-04-30 03:22 | 7.04999 | -79.35671 | 31179 ft | 472 kts | 353° |
| 2026-04-30 03:22 | 7.08285 | -79.36062 | 30495 ft | 472 kts | 353° |
| 2026-04-30 03:22 | 7.11178 | -79.36407 | 29880 ft | 472 kts | 353° |
| 2026-04-30 03:23 | 7.14507 | -79.36803 | 29173 ft | 472 kts | 353° |
| 2026-04-30 03:23 | 7.17734 | -79.37186 | 28552 ft | 469 kts | 353° |
| 2026-04-30 03:23 | 7.20981 | -79.37572 | 28048 ft | 463 kts | 353° |
| 2026-04-30 03:23 | 7.24126 | -79.37947 | 27509 ft | 459 kts | 353° |
| 2026-04-30 03:24 | 7.27277 | -79.38322 | 26965 ft | 455 kts | 353° |
| 2026-04-30 03:24 | 7.30379 | -79.38765 | 26595 ft | 445 kts | 348° |
| 2026-04-30 03:24 | 7.33401 | -79.39407 | 26225 ft | 446 kts | 347° |
| 2026-04-30 03:24 | 7.36437 | -79.40057 | 25693 ft | 443 kts | 347° |
| 2026-04-30 03:25 | 7.39412 | -79.40699 | 25169 ft | 439 kts | 347° |
| 2026-04-30 03:25 | 7.42393 | -79.41344 | 24648 ft | 434 kts | 347° |
| 2026-04-30 03:25 | 7.45308 | -79.41975 | 24142 ft | 430 kts | 346° |
| 2026-04-30 03:25 | 7.48274 | -79.42619 | 23629 ft | 425 kts | 346° |
| 2026-04-30 03:26 | 7.51163 | -79.43247 | 23135 ft | 420 kts | 346° |
| 2026-04-30 03:26 | 7.53983 | -79.43861 | 22661 ft | 415 kts | 347° |
| 2026-04-30 03:26 | 7.56762 | -79.44464 | 22204 ft | 411 kts | 347° |
| 2026-04-30 03:26 | 7.59611 | -79.44882 | 21734 ft | 410 kts | 355° |
| 2026-04-30 03:27 | 7.62436 | -79.45085 | 21274 ft | 408 kts | 354° |
| 2026-04-30 03:27 | 7.65278 | -79.45335 | 20802 ft | 405 kts | 354° |
| 2026-04-30 03:27 | 7.68072 | -79.45598 | 20339 ft | 402 kts | 354° |
| 2026-04-30 03:27 | 7.70826 | -79.45868 | 19887 ft | 400 kts | 354° |
| 2026-04-30 03:28 | 7.73613 | -79.46149 | 19433 ft | 397 kts | 354° |
| 2026-04-30 03:28 | 7.76260 | -79.46419 | 19000 ft | 395 kts | 354° |
| 2026-04-30 03:28 | 7.78996 | -79.46698 | 18554 ft | 393 kts | 354° |
| 2026-04-30 03:28 | 7.81701 | -79.46974 | 18115 ft | 391 kts | 354° |
| 2026-04-30 03:29 | 7.84403 | -79.47247 | 17676 ft | 389 kts | 354° |
| 2026-04-30 03:29 | 7.87092 | -79.47524 | 17239 ft | 386 kts | 354° |
| 2026-04-30 03:29 | 7.89727 | -79.47800 | 16806 ft | 383 kts | 354° |
| 2026-04-30 03:29 | 7.92396 | -79.48071 | 16382 ft | 381 kts | 354° |
| 2026-04-30 03:30 | 7.95013 | -79.48339 | 15968 ft | 379 kts | 354° |
| 2026-04-30 03:30 | 7.97630 | -79.48608 | 15544 ft | 377 kts | 354° |
| 2026-04-30 03:30 | 8.00238 | -79.48877 | 15131 ft | 374 kts | 355° |
| 2026-04-30 03:30 | 8.02804 | -79.49140 | 14718 ft | 371 kts | 354° |
| 2026-04-30 03:31 | 8.05379 | -79.49411 | 14312 ft | 369 kts | 355° |
| 2026-04-30 03:31 | 8.07912 | -79.49667 | 13906 ft | 367 kts | 355° |
| 2026-04-30 03:31 | 8.10449 | -79.49927 | 13502 ft | 365 kts | 355° |
| 2026-04-30 03:31 | 8.12957 | -79.50185 | 13121 ft | 362 kts | 355° |
| 2026-04-30 03:32 | 8.15443 | -79.50440 | 12757 ft | 360 kts | 355° |
| 2026-04-30 03:32 | 8.17925 | -79.50694 | 12387 ft | 359 kts | 355° |
| 2026-04-30 03:32 | 8.20418 | -79.50951 | 12008 ft | 357 kts | 355° |
| 2026-04-30 03:32 | 8.22840 | -79.51200 | 11799 ft | 347 kts | 355° |
| 2026-04-30 03:33 | 8.25222 | -79.51446 | 11649 ft | 337 kts | 355° |
| 2026-04-30 03:33 | 8.27521 | -79.51682 | 11256 ft | 334 kts | 355° |
| 2026-04-30 03:33 | 8.29841 | -79.51920 | 10897 ft | 330 kts | 355° |
| 2026-04-30 03:33 | 8.32071 | -79.52150 | 10635 ft | 324 kts | 355° |
| 2026-04-30 03:34 | 8.34280 | -79.52377 | 10405 ft | 316 kts | 355° |
| 2026-04-30 03:34 | 8.36438 | -79.52575 | 10219 ft | 307 kts | 0° |
| 2026-04-30 03:34 | 8.38549 | -79.52385 | 10034 ft | 298 kts | 8° |
| 2026-04-30 03:34 | 8.40575 | -79.52138 | 9778 ft | 293 kts | 6° |
| 2026-04-30 03:35 | 8.42588 | -79.51941 | 9522 ft | 288 kts | 5° |
| 2026-04-30 03:35 | 8.44549 | -79.51765 | 9270 ft | 284 kts | 5° |
| 2026-04-30 03:35 | 8.46524 | -79.51598 | 9019 ft | 282 kts | 5° |
| 2026-04-30 03:35 | 8.48500 | -79.51437 | 8764 ft | 281 kts | 5° |
| 2026-04-30 03:36 | 8.50436 | -79.51280 | 8516 ft | 280 kts | 5° |
| 2026-04-30 03:36 | 8.52365 | -79.51125 | 8267 ft | 278 kts | 4° |
| 2026-04-30 03:36 | 8.54307 | -79.50971 | 8013 ft | 277 kts | 5° |
| 2026-04-30 03:36 | 8.56220 | -79.50819 | 7764 ft | 276 kts | 5° |
| 2026-04-30 03:37 | 8.58115 | -79.50669 | 7515 ft | 275 kts | 5° |
| 2026-04-30 03:37 | 8.60034 | -79.50517 | 7262 ft | 274 kts | 5° |
| 2026-04-30 03:37 | 8.61921 | -79.50369 | 7014 ft | 273 kts | 5° |
| 2026-04-30 03:37 | 8.63804 | -79.50217 | 6764 ft | 272 kts | 5° |
| 2026-04-30 03:38 | 8.65699 | -79.50068 | 6512 ft | 270 kts | 5° |
| 2026-04-30 03:38 | 8.67564 | -79.49921 | 6263 ft | 269 kts | 5° |
| 2026-04-30 03:38 | 8.69402 | -79.49775 | 6012 ft | 265 kts | 5° |
| 2026-04-30 03:38 | 8.71216 | -79.49631 | 5846 ft | 258 kts | 5° |
| 2026-04-30 03:39 | 8.72983 | -79.49492 | 5707 ft | 250 kts | 5° |
| 2026-04-30 03:39 | 8.74697 | -79.49357 | 5565 ft | 243 kts | 6° |
| 2026-04-30 03:39 | 8.76354 | -79.49225 | 5427 ft | 235 kts | 5° |
| 2026-04-30 03:39 | 8.77953 | -79.49118 | 5286 ft | 228 kts | 357° |
| 2026-04-30 03:40 | 8.79485 | -79.49346 | 5152 ft | 222 kts | 360° |
| 2026-04-30 03:40 | 8.80992 | -79.49036 | 4985 ft | 221 kts | 21° |
| 2026-04-30 03:40 | 8.82451 | -79.48609 | 4796 ft | 220 kts | 11° |
| 2026-04-30 03:40 | 8.83960 | -79.48286 | 4592 ft | 219 kts | 12° |
| 2026-04-30 03:41 | 8.85441 | -79.47939 | 4350 ft | 219 kts | 13° |
| 2026-04-30 03:41 | 8.86917 | -79.47584 | 4098 ft | 217 kts | 14° |
| 2026-04-30 03:41 | 8.88360 | -79.47230 | 3850 ft | 216 kts | 14° |
| 2026-04-30 03:41 | 8.89849 | -79.46859 | 3618 ft | 213 kts | 14° |
| 2026-04-30 03:42 | 8.91243 | -79.46513 | 3464 ft | 206 kts | 15° |
| 2026-04-30 03:42 | 8.92641 | -79.46166 | 3202 ft | 204 kts | 14° |
| 2026-04-30 03:42 | 8.94013 | -79.45820 | 2995 ft | 200 kts | 14° |
| 2026-04-30 03:42 | 8.95339 | -79.45488 | 2784 ft | 196 kts | 14° |
| 2026-04-30 03:43 | 8.96612 | -79.45094 | 2678 ft | 185 kts | 27° |
| 2026-04-30 03:43 | 8.97701 | -79.44447 | 2543 ft | 177 kts | 31° |
| 2026-04-30 03:43 | 8.98685 | -79.43805 | 2423 ft | 161 kts | 32° |
| 2026-04-30 03:43 | 8.99645 | -79.43211 | 2281 ft | 161 kts | 28° |
| 2026-04-30 03:44 | 9.00613 | -79.42639 | 2099 ft | 164 kts | 29° |
| 2026-04-30 03:44 | 9.01591 | -79.42080 | 1872 ft | 160 kts | 28° |
| 2026-04-30 03:44 | 9.02536 | -79.41515 | 1547 ft | 156 kts | 30° |
| 2026-04-30 03:44 | 9.03482 | -79.40981 | 1175 ft | 158 kts | 27° |
| 2026-04-30 03:45 | 9.04440 | -79.40434 | 886 ft | 159 kts | 30° |
| 2026-04-30 03:45 | 9.05388 | -79.39859 | 631 ft | 158 kts | 29° |
| 2026-04-30 03:45 | 9.06323 | -79.39300 | 390 ft | 155 kts | 30° |
| 2026-04-30 03:45 | 9.07250 | -79.38747 | 125 ft | 155 kts | 30° |
| 2026-04-30 03:46 | 9.08148 | -79.38205 | 83 ft | 141 kts | 30° |
| 2026-04-30 03:46 | 9.08828 | -79.37798 | 118 ft | 76 kts | 31° |
| 2026-04-30 03:46 | 9.09170 | -79.37592 | 132 ft | 40 kts | 30° |
| 2026-04-30 03:46 | 9.09318 | -79.37503 | 139 ft | 18 kts | 32° |
| 2026-04-30 03:47 | 9.09345 | -79.37458 | 140 ft | 4 kts | 98° |
| 2026-04-30 03:47 | 9.09336 | -79.37427 | 141 ft | 5 kts | 112° |
| 2026-04-30 03:47 | 9.09316 | -79.37386 | 141 ft | 7 kts | 117° |
| 2026-04-30 03:47 | 9.09281 | -79.37337 | 140 ft | 9 kts | 146° |
| 2026-04-30 03:48 | 9.09207 | -79.37337 | 139 ft | 12 kts | 195° |
| 2026-04-30 03:48 | 9.09118 | -79.37365 | 138 ft | 14 kts | 198° |
| 2026-04-30 03:48 | 9.09010 | -79.37400 | 135 ft | 17 kts | 197° |
| 2026-04-30 03:48 | 9.08916 | -79.37427 | 134 ft | 12 kts | 198° |
| 2026-04-30 03:49 | 9.08842 | -79.37463 | 133 ft | 10 kts | 208° |
| 2026-04-30 03:49 | 9.08779 | -79.37499 | 132 ft | 10 kts | 211° |
| 2026-04-30 03:49 | 9.08725 | -79.37528 | 129 ft | 4 kts | 175° |
| 2026-04-30 03:49 | 9.08706 | -79.37520 | 129 ft | 0 kts | 138° |
| 2026-04-30 03:50 | 9.08700 | -79.37513 | 129 ft | 1 kts | 125° |
| 2026-04-30 03:50 | 9.08692 | -79.37498 | 130 ft | 3 kts | 121° |
| 2026-04-30 03:50 | 9.08679 | -79.37476 | 131 ft | 3 kts | 120° |
| 2026-04-30 03:50 | 9.08676 | -79.37471 | 131 ft | 0 kts | 120° |